Time;durP1;ratioP1;P1;durP2;ratioP2;P2;SDS_P1;SDS_P2;PMS_P1;PMS_P2;Temp;Humidity;BMP_temperature;BMP_pressure;BME280_temperature;BME280_humidity;BME280_pressure;Samples;Min_cycle;Max_cycle;Signal;HPM_P1;HPM_P2
2022/01/23 00:00:20;;;;;;;0.00;0.00;;;;;;;;;;5017031;28;20253;-70
2022/01/23 00:02:48;;;;;;;0.00;0.00;;;;;;;;;;5018900;28;20647;-70
2022/01/23 00:05:18;;;;;;;0.00;0.00;;;;;;;;;;5016766;28;20208;-71
2022/01/23 00:07:47;;;;;;;0.00;0.00;;;;;;;;;;5013238;28;20203;-70
2022/01/23 00:10:15;;;;;;;0.00;0.00;;;;;;;;;;5015166;28;20216;-71
2022/01/23 00:12:46;;;;;;;0.00;0.00;;;;;;;;;;5014245;28;20207;-71
2022/01/23 00:17:59;;;;;;;0.00;0.00;;;;;;;;;;5016462;28;20219;-70
2022/01/23 00:20:26;;;;;;;0.00;0.00;;;;;;;;;;5016821;28;20233;-70
2022/01/23 00:22:58;;;;;;;0.00;0.00;;;;;;;;;;5016829;28;20196;-70
2022/01/23 00:31:04;;;;;;;0.00;0.00;;;;;;;;;;5010783;28;20239;-70
2022/01/23 00:33:33;;;;;;;0.00;0.00;;;;;;;;;;5013324;28;20200;-71
2022/01/23 00:36:00;;;;;;;0.00;0.00;;;;;;;;;;5013113;28;20965;-70
2022/01/23 00:38:29;;;;;;;0.00;0.00;;;;;;;;;;5012417;28;20745;-70
2022/01/23 00:40:56;;;;;;;0.00;0.00;;;;;;;;;;5017156;28;20199;-70
2022/01/23 00:43:29;;;;;;;0.00;0.00;;;;;;;;;;5018792;28;20193;-70
2022/01/23 00:46:08;;;;;;;0.00;0.00;;;;;;;;;;5010770;28;20350;-70
2022/01/23 00:48:39;;;;;;;0.00;0.00;;;;;;;;;;5014162;28;22029;-71
2022/01/23 00:51:07;;;;;;;0.00;0.00;;;;;;;;;;5016676;28;20224;-71
2022/01/23 00:53:35;;;;;;;0.00;0.00;;;;;;;;;;5016257;28;20200;-70
2022/01/23 00:56:03;;;;;;;0.00;0.00;;;;;;;;;;5016108;28;20197;-70
2022/01/23 00:58:30;;;;;;;0.00;0.00;;;;;;;;;;5015849;28;20569;-71
2022/01/23 01:00:58;;;;;;;0.00;0.00;;;;;;;;;;5014450;28;20215;-71
2022/01/23 01:03:25;;;;;;;0.00;0.00;;;;;;;;;;5013664;28;20219;-70
2022/01/23 01:05:53;;;;;;;0.00;0.00;;;;;;;;;;5010343;28;20201;-71
2022/01/23 01:08:20;;;;;;;0.00;0.00;;;;;;;;;;5011974;28;20208;-71
2022/01/23 01:10:58;;;;;;;0.00;0.00;;;;;;;;;;5012481;28;20231;-71
2022/01/23 01:13:32;;;;;;;0.00;0.00;;;;;;;;;;5015898;28;20421;-70
2022/01/23 01:16:23;;;;;;;0.00;0.00;;;;;;;;;;5012054;28;20260;-70
2022/01/23 01:30:17;;;;;;;0.00;0.00;;;;;;;;;;5012945;28;20588;-71
2022/01/23 01:32:56;;;;;;;0.00;0.00;;;;;;;;;;5013865;28;20244;-71
2022/01/23 01:35:29;;;;;;;0.00;0.00;;;;;;;;;;5013957;28;20288;-70
2022/01/23 01:37:56;;;;;;;0.00;0.00;;;;;;;;;;5016545;28;20200;-70
2022/01/23 01:40:25;;;;;;;0.00;0.00;;;;;;;;;;5014150;28;20707;-70
2022/01/23 01:42:54;;;;;;;1.63;1.53;;;;;;;;;;5009197;28;20598;-71
2022/01/23 01:45:22;;;;;;;0.00;0.00;;;;;;;;;;5014739;28;20228;-71
2022/01/23 01:47:50;;;;;;;0.00;0.00;;;;;;;;;;5020822;28;20212;-70
2022/01/23 01:50:17;;;;;;;0.00;0.00;;;;;;;;;;5014093;28;20240;-71
2022/01/23 01:52:44;;;;;;;0.00;0.00;;;;;;;;;;5019184;28;20216;-70
2022/01/23 01:55:16;;;;;;;0.00;0.00;;;;;;;;;;5014610;28;20991;-70
2022/01/23 01:57:52;;;;;;;0.00;0.00;;;;;;;;;;5017720;28;20212;-70
2022/01/23 02:00:38;;;;;;;0.00;0.00;;;;;;;;;;5010481;28;20200;-70
2022/01/23 02:03:35;;;;;;;0.00;0.00;;;;;;;;;;5010284;28;20682;-70
2022/01/23 02:08:48;;;;;;;0.00;0.00;;;;;;;;;;5010532;28;20207;-70
2022/01/23 02:11:20;;;;;;;0.00;0.00;;;;;;;;;;5009867;28;20224;-70
2022/01/23 02:13:52;;;;;;;0.00;0.00;;;;;;;;;;5015675;28;20188;-71
2022/01/23 02:16:53;;;;;;;0.00;0.00;;;;;;;;;;5023282;28;20767;-70
2022/01/23 02:22:39;;;;;;;0.00;0.00;;;;;;;;;;5029871;28;20326;-69
2022/01/23 02:50:31;;;;;;;0.00;0.00;;;;;;;;;;5020293;28;20188;-69
2022/01/23 02:50:48;;;;;;;0.00;0.00;;;;;;;;;;5029103;28;20239;-68
2022/01/23 02:56:00;;;;;;;0.00;0.00;;;;;;;;;;5029395;28;20223;-71
2022/01/23 02:58:34;;;;;;;0.00;0.00;;;;;;;;;;5012410;28;20300;-71
2022/01/23 03:01:16;;;;;;;0.00;0.00;;;;;;;;;;5009719;28;20200;-71
2022/01/23 03:03:56;;;;;;;0.00;0.00;;;;;;;;;;5009288;28;20208;-71
2022/01/23 03:06:39;;;;;;;0.00;0.00;;;;;;;;;;5009532;28;20288;-70
2022/01/23 03:12:08;;;;;;;0.00;0.00;;;;;;;;;;5009396;28;20290;-70
2022/01/23 03:14:43;;;;;;;0.00;0.00;;;;;;;;;;5010021;28;20204;-69
2022/01/23 03:25:54;;;;;;;0.00;0.00;;;;;;;;;;5028804;28;20248;-70
2022/01/23 03:28:34;;;;;;;0.00;0.00;;;;;;;;;;5024567;28;20215;-71
2022/01/23 03:31:08;;;;;;;0.00;0.00;;;;;;;;;;5017412;28;20231;-70
2022/01/23 03:33:36;;;;;;;0.53;0.53;;;;;;;;;;5013327;28;20203;-71
2022/01/23 03:36:04;;;;;;;0.00;0.00;;;;;;;;;;5017834;28;20242;-71
2022/01/23 03:38:32;;;;;;;0.00;0.00;;;;;;;;;;5032368;28;20211;-71
2022/01/23 03:40:59;;;;;;;0.00;0.00;;;;;;;;;;5031556;28;20204;-70
2022/01/23 03:43:31;;;;;;;0.00;0.00;;;;;;;;;;5032017;28;20200;-70
2022/01/23 03:46:20;;;;;;;0.00;0.00;;;;;;;;;;5032774;28;20188;-70
2022/01/23 03:51:33;;;;;;;0.00;0.00;;;;;;;;;;5032478;28;20226;-70
2022/01/23 03:54:00;;;;;;;0.00;0.00;;;;;;;;;;5032291;28;20550;-71
2022/01/23 03:56:30;;;;;;;0.00;0.00;;;;;;;;;;5032864;28;20211;-70
2022/01/23 03:58:59;;;;;;;0.00;0.00;;;;;;;;;;5032028;28;20224;-71
2022/01/23 04:01:27;;;;;;;0.00;0.00;;;;;;;;;;5030990;28;20689;-71
2022/01/23 04:03:59;;;;;;;0.00;0.00;;;;;;;;;;5013102;28;20677;-71
2022/01/23 04:06:26;;;;;;;0.00;0.00;;;;;;;;;;5013189;28;20220;-70
2022/01/23 04:08:53;;;;;;;0.00;0.00;;;;;;;;;;5013691;28;20205;-70
2022/01/23 04:11:21;;;;;;;0.00;0.00;;;;;;;;;;5016002;28;20225;-70
2022/01/23 04:13:53;;;;;;;0.00;0.00;;;;;;;;;;5014215;28;20572;-70
2022/01/23 04:16:49;;;;;;;0.00;0.00;;;;;;;;;;5012459;28;20208;-70
2022/01/23 04:19:36;;;;;;;0.00;0.00;;;;;;;;;;5018853;28;20197;-70
2022/01/23 04:47:51;;;;;;;0.00;0.00;;;;;;;;;;5024810;28;20251;-70
2022/01/23 05:01:22;;;;;;;0.00;0.00;;;;;;;;;;5030540;28;20207;-71
2022/01/23 05:06:46;;;;;;;2.57;0.70;;;;;;;;;;5011722;28;20193;-71
2022/01/23 05:09:14;;;;;;;0.00;0.00;;;;;;;;;;5011393;28;20197;-71
2022/01/23 05:11:48;;;;;;;0.00;0.00;;;;;;;;;;5022851;28;20224;-71
2022/01/23 05:14:17;;;;;;;0.00;0.00;;;;;;;;;;5020851;28;20478;-71
2022/01/23 05:16:45;;;;;;;0.00;0.00;;;;;;;;;;5020248;28;20788;-70
2022/01/23 05:19:12;;;;;;;0.00;0.00;;;;;;;;;;5021147;28;22721;-70
2022/01/23 05:22:05;;;;;;;0.00;0.00;;;;;;;;;;5017525;28;20287;-70
2022/01/23 05:24:37;;;;;;;0.00;0.00;;;;;;;;;;5015830;28;20307;-70
2022/01/23 05:27:06;;;;;;;0.00;0.00;;;;;;;;;;5018587;28;20197;-69
2022/01/23 05:29:33;;;;;;;0.00;0.00;;;;;;;;;;5016916;28;20228;-69
2022/01/23 05:32:01;;;;;;;0.00;0.00;;;;;;;;;;5017527;28;20264;-69
2022/01/23 05:34:28;;;;;;;0.00;0.00;;;;;;;;;;5016742;28;20208;-69
2022/01/23 05:36:57;;;;;;;0.00;0.00;;;;;;;;;;5014823;28;20205;-70
2022/01/23 05:39:26;;;;;;;0.00;0.00;;;;;;;;;;5016207;28;20279;-69
2022/01/23 05:41:59;;;;;;;0.00;0.00;;;;;;;;;;5021254;28;20204;-70
2022/01/23 05:44:27;;;;;;;0.00;0.00;;;;;;;;;;5015851;28;20224;-70
2022/01/23 05:46:54;;;;;;;0.00;0.00;;;;;;;;;;5018703;28;20571;-70
2022/01/23 05:49:22;;;;;;;0.00;0.00;;;;;;;;;;5017854;28;20662;-70
2022/01/23 05:51:49;;;;;;;0.00;0.00;;;;;;;;;;5018229;28;20228;-70
2022/01/23 05:54:18;;;;;;;0.00;0.00;;;;;;;;;;5017181;28;20199;-70
2022/01/23 05:56:46;;;;;;;0.00;0.00;;;;;;;;;;5019479;28;20203;-71
2022/01/23 05:59:15;;;;;;;0.00;0.00;;;;;;;;;;5017163;28;20335;-71
2022/01/23 06:01:43;;;;;;;0.00;0.00;;;;;;;;;;5018228;28;20216;-71
2022/01/23 06:04:10;;;;;;;0.00;0.00;;;;;;;;;;5018446;28;20197;-71
2022/01/23 06:06:38;;;;;;;0.00;0.00;;;;;;;;;;5018679;28;20199;-70
2022/01/23 06:09:05;;;;;;;0.00;0.00;;;;;;;;;;5015640;28;20207;-71
2022/01/23 06:11:34;;;;;;;0.10;0.10;;;;;;;;;;5016580;28;20258;-71
2022/01/23 06:14:01;;;;;;;0.00;0.00;;;;;;;;;;5017929;28;20204;-70
2022/01/23 06:16:28;;;;;;;0.77;0.77;;;;;;;;;;5018157;28;20194;-70
2022/01/23 06:18:56;;;;;;;0.00;0.00;;;;;;;;;;5016054;28;20196;-70
2022/01/23 06:21:24;;;;;;;0.00;0.00;;;;;;;;;;5014037;28;20220;-71
2022/01/23 06:24:01;;;;;;;0.00;0.00;;;;;;;;;;5017468;28;20282;-69
2022/01/23 06:26:32;;;;;;;0.00;0.00;;;;;;;;;;5019243;28;20199;-71
2022/01/23 06:29:03;;;;;;;0.00;0.00;;;;;;;;;;5018399;28;20572;-70
2022/01/23 06:31:30;;;;;;;0.00;0.00;;;;;;;;;;5015091;28;20247;-70
2022/01/23 06:33:58;;;;;;;0.00;0.00;;;;;;;;;;5014891;28;20192;-71
2022/01/23 06:36:25;;;;;;;0.03;0.03;;;;;;;;;;5015179;28;20242;-71
2022/01/23 06:38:53;;;;;;;0.00;0.00;;;;;;;;;;5016231;28;20207;-70
2022/01/23 06:41:20;;;;;;;0.00;0.00;;;;;;;;;;5016622;28;20197;-72
2022/01/23 06:43:47;;;;;;;0.00;0.00;;;;;;;;;;5016114;28;20200;-70
2022/01/23 06:46:16;;;;;;;0.00;0.00;;;;;;;;;;5018779;28;20200;-70
2022/01/23 06:48:43;;;;;;;0.87;0.73;;;;;;;;;;5016146;28;20203;-70
2022/01/23 06:51:11;;;;;;;0.00;0.00;;;;;;;;;;5015064;28;20965;-70
2022/01/23 06:53:38;;;;;;;0.00;0.00;;;;;;;;;;5017405;28;20216;-69
2022/01/23 06:56:05;;;;;;;0.00;0.00;;;;;;;;;;5016937;28;20188;-71
2022/01/23 06:58:33;;;;;;;0.00;0.00;;;;;;;;;;5017903;28;20224;-72
2022/01/23 07:01:00;;;;;;;0.07;0.07;;;;;;;;;;5016312;28;20795;-71
2022/01/23 07:03:29;;;;;;;0.00;0.00;;;;;;;;;;5017043;28;20197;-71
2022/01/23 07:05:56;;;;;;;0.00;0.00;;;;;;;;;;5018308;28;20188;-71
2022/01/23 07:08:23;;;;;;;0.00;0.00;;;;;;;;;;5016729;28;20192;-71
2022/01/23 07:10:51;;;;;;;0.00;0.00;;;;;;;;;;5016494;28;20213;-71
2022/01/23 07:13:18;;;;;;;0.00;0.00;;;;;;;;;;5012515;28;20207;-70
2022/01/23 07:15:45;;;;;;;0.00;0.00;;;;;;;;;;5017485;28;20197;-70
2022/01/23 07:18:13;;;;;;;0.00;0.00;;;;;;;;;;5016584;28;20409;-70
2022/01/23 07:20:41;;;;;;;0.00;0.00;;;;;;;;;;5014685;28;20243;-70
2022/01/23 07:23:09;;;;;;;0.00;0.00;;;;;;;;;;5009712;28;20704;-70
2022/01/23 07:25:36;;;;;;;0.00;0.00;;;;;;;;;;5021816;28;20201;-70
2022/01/23 07:28:05;;;;;;;0.00;0.00;;;;;;;;;;5009333;28;20196;-70
2022/01/23 07:30:37;;;;;;;0.00;0.00;;;;;;;;;;5008061;28;20598;-70
2022/01/23 07:33:05;;;;;;;0.00;0.00;;;;;;;;;;5006091;28;20232;-71
2022/01/23 07:35:32;;;;;;;0.00;0.00;;;;;;;;;;5008200;28;20193;-69
2022/01/23 07:38:01;;;;;;;0.00;0.00;;;;;;;;;;5011637;28;20196;-71
2022/01/23 07:40:28;;;;;;;2.53;0.50;;;;;;;;;;5011014;28;20348;-71
2022/01/23 07:42:55;;;;;;;11.17;8.93;;;;;;;;;;5012360;28;20712;-68
2022/01/23 07:45:23;;;;;;;0.00;0.00;;;;;;;;;;5011564;28;20192;-70
2022/01/23 07:47:50;;;;;;;0.00;0.00;;;;;;;;;;5012228;28;20208;-69
2022/01/23 07:50:18;;;;;;;0.00;0.00;;;;;;;;;;5016073;28;20200;-70
2022/01/23 07:52:45;;;;;;;0.00;0.00;;;;;;;;;;5013085;28;20233;-70
2022/01/23 07:55:15;;;;;;;0.00;0.00;;;;;;;;;;5018062;28;20204;-70
2022/01/23 07:57:43;;;;;;;0.00;0.00;;;;;;;;;;5015483;28;20253;-70
2022/01/23 08:00:12;;;;;;;0.00;0.00;;;;;;;;;;5019157;28;20855;-70
2022/01/23 08:02:39;;;;;;;0.10;0.10;;;;;;;;;;5017398;28;20204;-71
2022/01/23 08:05:09;;;;;;;0.00;0.00;;;;;;;;;;5015317;28;20204;-70
2022/01/23 08:07:36;;;;;;;0.00;0.00;;;;;;;;;;5015748;28;20609;-70
2022/01/23 08:10:05;;;;;;;0.00;0.00;;;;;;;;;;5016431;28;20193;-69
2022/01/23 08:12:35;;;;;;;0.00;0.00;;;;;;;;;;5011692;28;20204;-72
2022/01/23 08:15:03;;;;;;;0.00;0.00;;;;;;;;;;5016722;28;20208;-70
2022/01/23 08:17:30;;;;;;;0.00;0.00;;;;;;;;;;5014553;28;20204;-72
2022/01/23 08:19:59;;;;;;;0.10;0.10;;;;;;;;;;5021535;28;20220;-72
2022/01/23 08:22:27;;;;;;;0.10;0.10;;;;;;;;;;5021140;28;20235;-68
2022/01/23 08:24:55;;;;;;;0.00;0.00;;;;;;;;;;5020126;28;20694;-72
2022/01/23 08:27:23;;;;;;;0.00;0.00;;;;;;;;;;5019347;28;20272;-70
2022/01/23 08:29:52;;;;;;;0.00;0.00;;;;;;;;;;5021276;28;20257;-71
2022/01/23 08:32:19;;;;;;;0.00;0.00;;;;;;;;;;5023455;28;20212;-73
2022/01/23 08:34:48;;;;;;;0.00;0.00;;;;;;;;;;5018384;28;20212;-70
2022/01/23 08:37:15;;;;;;;0.93;0.63;;;;;;;;;;5017678;28;20208;-67
2022/01/23 08:39:43;;;;;;;0.00;0.00;;;;;;;;;;5019676;28;20215;-71
2022/01/23 08:42:12;;;;;;;0.00;0.00;;;;;;;;;;5017875;28;20689;-75
2022/01/23 08:44:39;;;;;;;0.00;0.00;;;;;;;;;;5019845;28;20207;-68
2022/01/23 08:47:08;;;;;;;0.00;0.00;;;;;;;;;;5018868;28;20200;-67
2022/01/23 08:49:43;;;;;;;0.00;0.00;;;;;;;;;;5019803;28;20184;-64
2022/01/23 08:52:10;;;;;;;0.00;0.00;;;;;;;;;;5017484;28;20235;-67
2022/01/23 08:54:38;;;;;;;0.00;0.00;;;;;;;;;;5016780;28;20196;-70
2022/01/23 08:57:06;;;;;;;0.00;0.00;;;;;;;;;;5019005;28;20196;-70
2022/01/23 08:59:34;;;;;;;0.00;0.00;;;;;;;;;;5019757;28;20211;-69
2022/01/23 09:02:01;;;;;;;0.00;0.00;;;;;;;;;;5018353;28;20211;-68
2022/01/23 09:04:30;;;;;;;0.00;0.00;;;;;;;;;;5016142;28;20197;-70
2022/01/23 09:06:57;;;;;;;0.10;0.10;;;;;;;;;;5017558;28;20533;-70
2022/01/23 09:09:29;;;;;;;0.00;0.00;;;;;;;;;;5018635;28;20193;-68
2022/01/23 09:12:02;;;;;;;0.00;0.00;;;;;;;;;;5018910;28;20740;-69
2022/01/23 09:14:30;;;;;;;0.00;0.00;;;;;;;;;;5018595;28;20606;-67
2022/01/23 09:16:59;;;;;;;0.00;0.00;;;;;;;;;;5017027;28;20271;-68
2022/01/23 09:19:27;;;;;;;0.00;0.00;;;;;;;;;;5014627;28;20196;-69
2022/01/23 09:21:56;;;;;;;0.00;0.00;;;;;;;;;;5012971;28;20196;-70
2022/01/23 09:24:25;;;;;;;1.40;0.47;;;;;;;;;;5017300;28;20225;-74
2022/01/23 09:26:54;;;;;;;0.00;0.00;;;;;;;;;;5015678;28;20205;-73
2022/01/23 09:29:30;;;;;;;0.00;0.00;;;;;;;;;;4989316;28;20797;-75
2022/01/23 09:31:57;;;;;;;0.00;0.00;;;;;;;;;;4986612;28;20203;-74
2022/01/23 09:34:25;;;;;;;0.00;0.00;;;;;;;;;;4989574;28;20197;-75
2022/01/23 09:36:54;;;;;;;0.00;0.00;;;;;;;;;;4990013;28;20210;-76
2022/01/23 09:39:23;;;;;;;0.00;0.00;;;;;;;;;;4989895;28;20751;-78
2022/01/23 09:41:51;;;;;;;0.33;0.33;;;;;;;;;;4985934;28;20196;-76
2022/01/23 09:44:19;;;;;;;0.30;0.30;;;;;;;;;;4993429;28;20270;-76
2022/01/23 09:46:48;;;;;;;0.40;0.40;;;;;;;;;;4987247;28;20485;-72
2022/01/23 09:49:16;;;;;;;1.33;1.23;;;;;;;;;;4991821;28;20209;-74
2022/01/23 09:51:44;;;;;;;0.00;0.00;;;;;;;;;;4995035;28;20192;-71
2022/01/23 09:54:12;;;;;;;0.00;0.00;;;;;;;;;;4988654;28;20228;-71
2022/01/23 09:56:42;;;;;;;0.73;0.37;;;;;;;;;;4988678;28;23125;-71
2022/01/23 09:59:11;;;;;;;0.00;0.00;;;;;;;;;;4985309;28;20211;-73
2022/01/23 10:01:39;;;;;;;0.00;0.00;;;;;;;;;;4989332;28;20266;-77
2022/01/23 10:04:07;;;;;;;0.00;0.00;;;;;;;;;;4988887;28;20267;-67
2022/01/23 10:06:34;;;;;;;0.70;0.47;;;;;;;;;;5002870;28;20737;-70
2022/01/23 10:09:02;;;;;;;0.10;0.10;;;;;;;;;;5005598;28;20196;-72
2022/01/23 10:11:35;;;;;;;3.00;2.87;;;;;;;;;;5003521;28;20216;-68
2022/01/23 10:14:05;;;;;;;0.27;0.27;;;;;;;;;;5000340;28;20771;-70
2022/01/23 10:16:33;;;;;;;0.00;0.00;;;;;;;;;;4991008;28;20258;-69
2022/01/23 10:19:01;;;;;;;0.00;0.00;;;;;;;;;;5021588;28;20207;-68
2022/01/23 10:21:29;;;;;;;0.00;0.00;;;;;;;;;;5022034;28;21012;-68
2022/01/23 10:23:57;;;;;;;0.00;0.00;;;;;;;;;;5023950;28;20609;-71
2022/01/23 10:26:39;;;;;;;0.00;0.00;;;;;;;;;;5028420;28;20577;-77
2022/01/23 10:29:14;;;;;;;0.17;0.17;;;;;;;;;;5024590;28;20292;-74
2022/01/23 10:31:56;;;;;;;0.10;0.10;;;;;;;;;;5027151;28;20204;-71
2022/01/23 10:34:40;;;;;;;0.13;0.13;;;;;;;;;;5022551;28;20231;-72
2022/01/23 10:37:07;;;;;;;0.10;0.10;;;;;;;;;;5022951;28;20227;-74
2022/01/23 10:39:40;;;;;;;0.00;0.00;;;;;;;;;;5025411;28;20204;-69
2022/01/23 10:42:28;;;;;;;0.00;0.00;;;;;;;;;;5027564;28;20207;-70
2022/01/23 10:47:51;;;;;;;0.00;0.00;;;;;;;;;;5025827;28;20795;-71
2022/01/23 10:50:23;;;;;;;0.00;0.00;;;;;;;;;;5022541;28;20204;-70
2022/01/23 10:52:51;;;;;;;0.00;0.00;;;;;;;;;;5023252;28;20234;-74
2022/01/23 10:55:26;;;;;;;0.00;0.00;;;;;;;;;;5027079;28;20473;-72
2022/01/23 10:57:54;;;;;;;0.30;0.30;;;;;;;;;;5024645;28;20212;-71
2022/01/23 11:00:25;;;;;;;0.63;0.53;;;;;;;;;;5023973;28;20688;-70
2022/01/23 11:02:53;;;;;;;0.00;0.00;;;;;;;;;;5024515;28;20200;-68
2022/01/23 11:05:22;;;;;;;0.00;0.00;;;;;;;;;;5023513;28;20204;-72
2022/01/23 11:07:50;;;;;;;0.00;0.00;;;;;;;;;;5025321;28;20196;-76
2022/01/23 11:10:19;;;;;;;0.00;0.00;;;;;;;;;;5025391;28;20196;-77
2022/01/23 11:18:33;;;;;;;0.53;0.53;;;;;;;;;;5021538;28;20227;-68
2022/01/23 11:21:14;;;;;;;0.40;0.40;;;;;;;;;;5026752;28;20231;-68
2022/01/23 11:23:42;;;;;;;0.00;0.00;;;;;;;;;;5023778;28;20199;-69
2022/01/23 11:26:10;;;;;;;0.00;0.00;;;;;;;;;;5027205;28;20196;-68
2022/01/23 11:28:41;;;;;;;0.00;0.00;;;;;;;;;;5021723;28;20820;-69
2022/01/23 11:31:11;;;;;;;0.77;0.77;;;;;;;;;;5026025;28;20200;-69
2022/01/23 11:33:40;;;;;;;0.00;0.00;;;;;;;;;;5024324;28;20230;-68
2022/01/23 11:36:08;;;;;;;0.00;0.00;;;;;;;;;;5025853;28;20204;-69
2022/01/23 11:38:36;;;;;;;0.00;0.00;;;;;;;;;;5024704;28;20207;-69
2022/01/23 11:55:00;;;;;;;0.00;0.00;;;;;;;;;;5015500;28;20268;-69
2022/01/23 11:57:37;;;;;;;0.00;0.00;;;;;;;;;;5013050;28;20761;-70
2022/01/23 12:00:07;;;;;;;0.00;0.00;;;;;;;;;;5018804;28;20218;-69
2022/01/23 12:02:40;;;;;;;0.00;0.00;;;;;;;;;;5016381;28;20199;-70
2022/01/23 12:05:22;;;;;;;0.00;0.00;;;;;;;;;;5017591;28;20212;-76
2022/01/23 12:08:08;;;;;;;0.00;0.00;;;;;;;;;;5016796;28;20188;-69
2022/01/23 12:10:50;;;;;;;0.33;0.33;;;;;;;;;;5017748;28;20215;-70
2022/01/23 12:13:55;;;;;;;0.00;0.00;;;;;;;;;;5018933;28;21021;-71
2022/01/23 12:16:25;;;;;;;0.00;0.00;;;;;;;;;;5016091;28;20265;-72
2022/01/23 12:19:14;;;;;;;0.27;0.27;;;;;;;;;;5014570;28;20269;-75
2022/01/23 12:21:45;;;;;;;1.00;1.00;;;;;;;;;;5018325;28;20199;-76
2022/01/23 12:24:14;;;;;;;0.00;0.00;;;;;;;;;;5015831;28;20196;-73
2022/01/23 12:26:42;;;;;;;0.00;0.00;;;;;;;;;;5018186;28;20570;-73
2022/01/23 12:29:13;;;;;;;0.77;0.77;;;;;;;;;;5015393;28;20209;-70
2022/01/23 12:31:41;;;;;;;0.20;0.20;;;;;;;;;;5016340;28;20211;-74
2022/01/23 12:34:08;;;;;;;0.00;0.00;;;;;;;;;;5018424;28;20700;-71
2022/01/23 12:36:37;;;;;;;0.00;0.00;;;;;;;;;;5018197;28;20211;-72
2022/01/23 12:39:18;;;;;;;0.93;0.53;;;;;;;;;;5017412;28;20640;-74
2022/01/23 12:41:56;;;;;;;0.83;0.83;;;;;;;;;;5016853;28;20653;-72
2022/01/23 12:44:34;;;;;;;0.47;0.47;;;;;;;;;;5016046;28;20203;-72
2022/01/23 12:47:02;;;;;;;1.17;1.17;;;;;;;;;;5017640;28;20204;-72
2022/01/23 12:49:31;;;;;;;0.00;0.00;;;;;;;;;;5017473;28;20610;-75
2022/01/23 12:52:15;;;;;;;0.00;0.00;;;;;;;;;;5018923;28;20207;-71
2022/01/23 12:54:58;;;;;;;0.00;0.00;;;;;;;;;;5018125;28;20224;-71
2022/01/23 12:57:32;;;;;;;0.20;0.20;;;;;;;;;;5017747;28;20676;-74
2022/01/23 13:00:02;;;;;;;0.43;0.43;;;;;;;;;;5016900;28;20201;-72
2022/01/23 13:02:39;;;;;;;0.00;0.00;;;;;;;;;;5019270;28;20228;-73
2022/01/23 13:05:07;;;;;;;0.10;0.10;;;;;;;;;;5013683;28;20774;-66
2022/01/23 13:07:41;;;;;;;0.00;0.00;;;;;;;;;;5007353;28;20717;-73
2022/01/23 13:10:25;;;;;;;0.27;0.13;;;;;;;;;;5011179;28;20270;-73
2022/01/23 13:13:07;;;;;;;0.10;0.10;;;;;;;;;;5009397;28;20216;-72
2022/01/23 13:16:00;;;;;;;2.10;0.83;;;;;;;;;;5010978;28;21445;-71
2022/01/23 13:18:46;;;;;;;0.30;0.30;;;;;;;;;;5012665;28;20212;-70
2022/01/23 13:32:18;;;;;;;0.83;0.13;;;;;;;;;;5014027;28;20208;-67
2022/01/23 13:34:49;;;;;;;1.60;0.70;;;;;;;;;;5008097;28;20229;-68
2022/01/23 13:37:17;;;;;;;0.00;0.00;;;;;;;;;;5013157;28;20293;-70
2022/01/23 13:39:48;;;;;;;0.30;0.27;;;;;;;;;;5014252;28;20647;-68
2022/01/23 13:42:32;;;;;;;1.03;0.93;;;;;;;;;;5012139;28;20219;-68
2022/01/23 13:53:37;;;;;;;1.53;1.47;;;;;;;;;;5013308;28;20287;-69
2022/01/23 13:59:08;;;;;;;0.10;0.10;;;;;;;;;;5013767;28;20239;-68
2022/01/23 14:01:48;;;;;;;4.47;3.83;;;;;;;;;;5011833;28;21612;-67
2022/01/23 14:04:16;;;;;;;0.00;0.00;;;;;;;;;;5013398;28;20196;-67
2022/01/23 14:06:44;;;;;;;1.40;1.30;;;;;;;;;;5010294;28;20197;-67
2022/01/23 14:09:12;;;;;;;7.87;2.80;;;;;;;;;;5011255;28;20200;-67
2022/01/23 14:11:40;;;;;;;0.83;0.83;;;;;;;;;;5012496;28;20663;-67
2022/01/23 14:14:16;;;;;;;0.57;0.57;;;;;;;;;;5013012;28;20221;-71
2022/01/23 14:16:44;;;;;;;1.20;0.77;;;;;;;;;;5007153;28;20746;-72
2022/01/23 14:19:19;;;;;;;0.67;0.67;;;;;;;;;;5012816;28;20280;-73
2022/01/23 14:21:47;;;;;;;1.60;1.50;;;;;;;;;;5008628;28;20208;-76
2022/01/23 14:24:21;;;;;;;1.03;0.67;;;;;;;;;;5009855;28;20218;-71
2022/01/23 14:26:56;;;;;;;0.00;0.00;;;;;;;;;;5010264;28;20906;-72
2022/01/23 14:29:25;;;;;;;0.30;0.30;;;;;;;;;;5009661;28;20204;-72
2022/01/23 14:32:05;;;;;;;0.30;0.30;;;;;;;;;;5010765;28;20200;-67
2022/01/23 14:34:33;;;;;;;0.00;0.00;;;;;;;;;;5009382;28;20306;-67
2022/01/23 14:37:03;;;;;;;0.00;0.00;;;;;;;;;;5013207;28;20200;-67
2022/01/23 14:39:31;;;;;;;3.20;2.83;;;;;;;;;;5010720;28;20299;-73
2022/01/23 14:42:10;;;;;;;0.20;0.20;;;;;;;;;;5009962;28;20676;-75
2022/01/23 14:44:39;;;;;;;0.00;0.00;;;;;;;;;;5011131;28;20211;-71
2022/01/23 14:47:06;;;;;;;0.57;0.57;;;;;;;;;;5010015;28;20789;-70
2022/01/23 14:49:34;;;;;;;0.00;0.00;;;;;;;;;;5011773;28;20209;-71
2022/01/23 14:52:03;;;;;;;0.00;0.00;;;;;;;;;;5008587;28;20216;-70
2022/01/23 14:54:32;;;;;;;0.00;0.00;;;;;;;;;;5011046;28;20235;-70
2022/01/23 14:57:01;;;;;;;1.30;1.30;;;;;;;;;;5008212;28;20811;-70
2022/01/23 14:59:31;;;;;;;1.70;0.93;;;;;;;;;;5016085;28;20799;-69
2022/01/23 15:02:00;;;;;;;0.07;0.07;;;;;;;;;;5010484;28;20747;-71
2022/01/23 15:04:27;;;;;;;0.00;0.00;;;;;;;;;;5010795;28;20547;-70
2022/01/23 15:06:55;;;;;;;0.00;0.00;;;;;;;;;;5012127;28;20200;-69
2022/01/23 15:09:23;;;;;;;0.00;0.00;;;;;;;;;;5012128;28;20213;-75
2022/01/23 15:11:51;;;;;;;0.00;0.00;;;;;;;;;;5011264;28;20204;-67
2022/01/23 15:14:19;;;;;;;0.00;0.00;;;;;;;;;;5013398;28;20228;-67
2022/01/23 15:16:48;;;;;;;0.00;0.00;;;;;;;;;;5012447;28;20211;-67
2022/01/23 15:19:17;;;;;;;0.00;0.00;;;;;;;;;;5006908;28;20197;-68
2022/01/23 15:21:45;;;;;;;0.03;0.03;;;;;;;;;;5006629;28;20215;-71
2022/01/23 15:24:12;;;;;;;0.00;0.00;;;;;;;;;;5009209;28;20212;-68
2022/01/23 15:26:40;;;;;;;0.00;0.00;;;;;;;;;;5010621;28;20568;-68
2022/01/23 15:29:08;;;;;;;0.00;0.00;;;;;;;;;;5015957;28;20624;-70
2022/01/23 15:31:36;;;;;;;0.00;0.00;;;;;;;;;;5017034;28;20207;-69
2022/01/23 15:34:03;;;;;;;0.00;0.00;;;;;;;;;;5016292;28;20212;-69
2022/01/23 15:36:33;;;;;;;0.20;0.20;;;;;;;;;;5015223;28;20201;-71
2022/01/23 15:39:01;;;;;;;0.00;0.00;;;;;;;;;;5013378;28;20197;-68
2022/01/23 15:41:29;;;;;;;0.00;0.00;;;;;;;;;;5013046;28;20279;-69
2022/01/23 15:43:56;;;;;;;0.00;0.00;;;;;;;;;;5013844;28;21713;-70
2022/01/23 15:46:23;;;;;;;0.57;0.57;;;;;;;;;;5013600;28;20196;-70
2022/01/23 15:48:51;;;;;;;0.00;0.00;;;;;;;;;;5021534;28;20187;-66
2022/01/23 15:51:19;;;;;;;0.60;0.60;;;;;;;;;;5022443;28;20192;-69
2022/01/23 15:53:47;;;;;;;0.00;0.00;;;;;;;;;;5019202;28;20792;-69
2022/01/23 15:56:15;;;;;;;0.20;0.20;;;;;;;;;;5013430;28;20220;-69
2022/01/23 15:58:42;;;;;;;0.00;0.00;;;;;;;;;;5015040;28;20207;-69
2022/01/23 16:01:09;;;;;;;0.00;0.00;;;;;;;;;;5017959;28;20180;-69
2022/01/23 16:03:37;;;;;;;3.60;2.10;;;;;;;;;;5016015;28;20209;-68
2022/01/23 16:06:04;;;;;;;0.87;0.87;;;;;;;;;;5022255;28;20677;-68
2022/01/23 16:08:31;;;;;;;0.63;0.63;;;;;;;;;;5026835;28;20539;-69
2022/01/23 16:11:01;;;;;;;0.00;0.00;;;;;;;;;;5022306;28;20196;-68
2022/01/23 16:13:30;;;;;;;0.00;0.00;;;;;;;;;;5024735;28;20212;-70
2022/01/23 16:15:58;;;;;;;0.13;0.13;;;;;;;;;;5023130;28;20255;-67
2022/01/23 16:18:25;;;;;;;0.00;0.00;;;;;;;;;;5031838;28;20203;-65
2022/01/23 16:20:53;;;;;;;0.00;0.00;;;;;;;;;;5030354;28;20600;-67
2022/01/23 16:23:21;;;;;;;0.00;0.00;;;;;;;;;;5031133;28;20259;-68
2022/01/23 16:25:48;;;;;;;0.87;0.87;;;;;;;;;;5020517;28;20207;-66
2022/01/23 16:28:17;;;;;;;0.00;0.00;;;;;;;;;;5015927;28;20205;-68
2022/01/23 16:30:46;;;;;;;0.00;0.00;;;;;;;;;;5019018;28;20299;-67
2022/01/23 16:33:13;;;;;;;0.00;0.00;;;;;;;;;;5021311;28;20205;-67
2022/01/23 16:35:40;;;;;;;0.00;0.00;;;;;;;;;;5018623;28;20255;-65
2022/01/23 16:38:08;;;;;;;0.00;0.00;;;;;;;;;;5013459;28;20196;-66
2022/01/23 16:40:35;;;;;;;0.00;0.00;;;;;;;;;;5011249;28;20197;-69
2022/01/23 16:43:03;;;;;;;0.00;0.00;;;;;;;;;;5019709;28;20200;-66
2022/01/23 16:45:31;;;;;;;0.03;0.03;;;;;;;;;;5020382;28;20247;-68
2022/01/23 16:47:59;;;;;;;0.00;0.00;;;;;;;;;;5019215;28;20204;-68
2022/01/23 16:50:26;;;;;;;0.00;0.00;;;;;;;;;;5010509;28;20200;-69
2022/01/23 16:52:54;;;;;;;0.00;0.00;;;;;;;;;;5007474;28;20204;-67
2022/01/23 16:55:21;;;;;;;0.10;0.10;;;;;;;;;;5009593;28;20227;-75
2022/01/23 16:57:48;;;;;;;0.00;0.00;;;;;;;;;;5013718;28;20184;-69
2022/01/23 17:00:16;;;;;;;0.00;0.00;;;;;;;;;;5010574;28;20200;-68
2022/01/23 17:02:46;;;;;;;0.00;0.00;;;;;;;;;;5009138;28;20802;-71
2022/01/23 17:05:13;;;;;;;0.00;0.00;;;;;;;;;;5008653;28;20211;-69
2022/01/23 17:07:43;;;;;;;0.00;0.00;;;;;;;;;;5012130;28;20585;-69
2022/01/23 17:10:11;;;;;;;0.00;0.00;;;;;;;;;;5009945;28;20209;-69
2022/01/23 17:12:38;;;;;;;0.00;0.00;;;;;;;;;;5012083;28;20204;-70
2022/01/23 17:15:06;;;;;;;0.00;0.00;;;;;;;;;;5014554;28;20231;-68
2022/01/23 17:17:33;;;;;;;0.13;0.13;;;;;;;;;;5011896;28;20193;-69
2022/01/23 17:20:02;;;;;;;0.00;0.00;;;;;;;;;;5008332;28;20267;-69
2022/01/23 17:22:29;;;;;;;0.00;0.00;;;;;;;;;;5013596;28;20231;-69
2022/01/23 17:24:57;;;;;;;0.00;0.00;;;;;;;;;;5011218;28;20204;-70
2022/01/23 17:27:25;;;;;;;0.00;0.00;;;;;;;;;;5009755;28;20670;-70
2022/01/23 17:29:52;;;;;;;1.40;1.30;;;;;;;;;;5008712;28;20881;-68
2022/01/23 17:32:21;;;;;;;0.00;0.00;;;;;;;;;;5010976;28;20549;-70